createdAt,value
2019-06-27T00:00:54.402Z,99.90
2019-06-27T00:03:26.976Z,99.90
2019-06-27T00:05:58.957Z,99.90
2019-06-27T00:08:31.484Z,99.90
2019-06-27T00:11:03.524Z,99.90
2019-06-27T00:13:35.531Z,99.90
2019-06-27T00:16:07.785Z,99.90
2019-06-27T00:18:40.700Z,99.90
2019-06-27T00:21:12.897Z,99.90
2019-06-27T00:23:45.163Z,99.90
2019-06-27T00:26:17.305Z,99.90
2019-06-27T00:28:49.359Z,99.90
2019-06-27T00:31:21.683Z,99.90
2019-06-27T00:33:54.095Z,99.90
2019-06-27T00:36:26.245Z,99.90
2019-06-27T00:38:58.330Z,99.90
2019-06-27T00:41:30.262Z,99.90
2019-06-27T00:44:02.354Z,99.90
2019-06-27T00:46:34.702Z,99.90
2019-06-27T00:49:06.789Z,99.90
2019-06-27T00:51:39.431Z,99.90
2019-06-27T00:54:11.649Z,99.90
2019-06-27T00:56:43.925Z,99.90
2019-06-27T00:59:16.492Z,99.90
2019-06-27T01:01:48.995Z,99.90
2019-06-27T01:04:21.552Z,99.90
2019-06-27T01:06:54.000Z,99.90
2019-06-27T01:09:26.806Z,99.90
2019-06-27T01:11:59.359Z,99.90
2019-06-27T01:14:32.103Z,99.90
2019-06-27T01:17:04.667Z,99.90
2019-06-27T01:19:37.302Z,99.90
2019-06-27T01:22:09.798Z,99.90
2019-06-27T01:24:42.398Z,99.90
2019-06-27T01:27:29.090Z,99.90
2019-06-27T01:29:49.255Z,99.90
2019-06-27T01:32:21.814Z,99.90
2019-06-27T01:34:54.564Z,99.90
2019-06-27T01:37:27.255Z,99.90
2019-06-27T01:39:59.508Z,99.90
2019-06-27T01:42:32.225Z,99.90
2019-06-27T01:45:26.102Z,99.90
2019-06-27T01:47:58.683Z,99.90
2019-06-27T01:50:31.089Z,99.90
2019-06-27T01:53:03.684Z,99.90
2019-06-27T01:55:36.197Z,99.90
2019-06-27T01:58:08.618Z,99.90
2019-06-27T02:00:41.666Z,99.90
2019-06-27T02:03:14.270Z,99.90
2019-06-27T02:05:47.013Z,99.90
2019-06-27T02:08:19.759Z,99.90
2019-06-27T02:10:52.672Z,99.90
2019-06-27T02:13:25.411Z,99.90
2019-06-27T02:15:58.010Z,99.90
2019-06-27T02:18:30.592Z,99.90
2019-06-27T02:21:04.700Z,99.90
2019-06-27T02:23:37.132Z,99.90
2019-06-27T02:26:09.530Z,99.90
2019-06-27T02:28:41.988Z,99.90
2019-06-27T02:31:14.422Z,99.90
2019-06-27T02:33:47.309Z,99.90
2019-06-27T02:36:20.052Z,99.90
2019-06-27T02:38:52.642Z,99.90
2019-06-27T02:41:25.306Z,99.90
2019-06-27T02:43:57.782Z,99.90
2019-06-27T02:46:30.353Z,99.90
2019-06-27T02:49:02.684Z,99.90
2019-06-27T02:51:35.230Z,99.90
2019-06-27T02:54:07.802Z,99.90
2019-06-27T02:56:40.366Z,99.90
2019-06-27T02:59:13.078Z,99.90
2019-06-27T03:01:46.045Z,99.90
2019-06-27T03:04:18.739Z,99.90
2019-06-27T03:06:51.315Z,99.90
2019-06-27T03:09:25.214Z,99.90
2019-06-27T03:12:00.370Z,99.90
2019-06-27T03:14:32.249Z,99.90
2019-06-27T03:17:04.715Z,99.90
2019-06-27T03:19:37.648Z,99.90
2019-06-27T03:22:10.531Z,99.90
2019-06-27T03:24:44.302Z,99.90
2019-06-27T03:27:16.984Z,99.90
2019-06-27T03:29:49.406Z,99.90
2019-06-27T03:32:22.029Z,99.90
2019-06-27T03:34:54.585Z,99.90
2019-06-27T03:37:27.155Z,99.90
2019-06-27T03:40:00.727Z,99.90
2019-06-27T03:42:33.505Z,99.90
2019-06-27T03:45:06.072Z,99.90
2019-06-27T03:47:38.835Z,99.90
2019-06-27T03:50:11.788Z,99.90
2019-06-27T03:52:44.418Z,99.90
2019-06-27T03:55:17.303Z,99.90
2019-06-27T03:57:49.985Z,99.90
2019-06-27T04:00:32.364Z,99.90
2019-06-27T04:03:04.955Z,99.90
2019-06-27T04:05:37.474Z,99.90
2019-06-27T04:08:10.065Z,99.90
2019-06-27T04:10:42.829Z,99.90
2019-06-27T04:13:15.733Z,99.90
2019-06-27T04:15:48.060Z,99.90
2019-06-27T04:18:20.119Z,99.90
2019-06-27T04:20:52.606Z,99.90
2019-06-27T04:23:24.650Z,99.90
2019-06-27T04:25:56.469Z,99.90
2019-06-27T04:28:28.848Z,99.90
2019-06-27T04:31:00.881Z,99.90
2019-06-27T04:33:33.295Z,99.90
2019-06-27T04:36:05.330Z,99.90
2019-06-27T04:38:37.396Z,99.90
2019-06-27T04:41:12.321Z,99.90
2019-06-27T04:43:44.759Z,99.90
2019-06-27T04:46:16.880Z,99.90
2019-06-27T04:48:48.907Z,99.90
2019-06-27T04:51:21.175Z,99.90
2019-06-27T04:53:54.040Z,99.90
2019-06-27T04:56:26.201Z,99.90
2019-06-27T04:58:58.356Z,99.90
2019-06-27T05:01:32.613Z,99.90
2019-06-27T05:04:04.789Z,99.90
2019-06-27T05:06:37.059Z,99.90
2019-06-27T05:09:09.202Z,99.90
2019-06-27T05:11:40.953Z,99.90
2019-06-27T05:14:13.399Z,99.90
2019-06-27T05:16:45.410Z,99.90
2019-06-27T05:19:17.363Z,99.90
2019-06-27T05:21:49.711Z,99.90
2019-06-27T05:24:22.104Z,99.90
2019-06-27T05:26:54.190Z,99.90
2019-06-27T05:29:26.421Z,99.90
2019-06-27T05:31:58.747Z,99.90
2019-06-27T05:34:30.639Z,99.90
2019-06-27T05:37:02.531Z,99.00
2019-06-27T05:39:35.012Z,97.50
2019-06-27T05:42:07.294Z,97.10
2019-06-27T05:44:39.647Z,96.30
2019-06-27T05:47:12.098Z,95.60
2019-06-27T05:49:44.803Z,94.80
2019-06-27T05:52:16.803Z,94.20
2019-06-27T05:54:48.925Z,93.90
2019-06-27T05:57:20.807Z,93.50
2019-06-27T05:59:53.497Z,93.40
2019-06-27T06:02:26.550Z,93.20
2019-06-27T06:04:58.778Z,92.60
2019-06-27T06:07:31.038Z,92.20
2019-06-27T06:10:03.065Z,92.00
2019-06-27T06:12:35.365Z,92.20
2019-06-27T06:15:07.691Z,92.20
2019-06-27T06:17:40.101Z,91.90
2019-06-27T06:20:12.754Z,91.80
2019-06-27T06:22:44.739Z,91.30
2019-06-27T06:25:16.932Z,90.60
2019-06-27T06:27:49.128Z,90.20
2019-06-27T06:30:21.713Z,90.20
2019-06-27T06:32:53.496Z,90.30
2019-06-27T06:35:25.522Z,90.40
2019-06-27T06:37:57.631Z,88.80
2019-06-27T06:40:30.026Z,88.80
2019-06-27T06:43:02.304Z,88.30
2019-06-27T06:45:34.703Z,89.20
2019-06-27T06:48:07.263Z,87.60
2019-06-27T06:50:39.563Z,86.30
2019-06-27T06:53:13.077Z,86.60
2019-06-27T06:55:45.141Z,87.40
2019-06-27T06:58:17.350Z,87.20
2019-06-27T07:01:01.137Z,84.60
2019-06-27T07:03:24.672Z,86.00
2019-06-27T07:05:56.679Z,84.90
2019-06-27T07:10:17.801Z,84.00
2019-06-27T07:12:50.365Z,85.10
2019-06-27T07:15:22.743Z,86.50
2019-06-27T07:17:55.053Z,87.50
2019-06-27T07:20:27.383Z,87.30
2019-06-27T07:22:59.893Z,86.60
2019-06-27T07:25:33.161Z,86.80
2019-06-27T07:28:05.731Z,86.30
2019-06-27T07:30:38.311Z,85.50
2019-06-27T07:33:10.676Z,85.70
2019-06-27T07:35:43.827Z,85.70
2019-06-27T07:38:16.004Z,85.10
2019-06-27T07:40:48.380Z,83.60
2019-06-27T07:43:20.690Z,85.40
2019-06-27T07:45:52.791Z,85.30
2019-06-27T07:48:25.034Z,85.40
2019-06-27T07:50:56.986Z,84.80
2019-06-27T07:53:29.574Z,84.40
2019-06-27T07:56:01.740Z,83.90
2019-06-27T07:58:33.479Z,84.20
2019-06-27T08:01:05.396Z,84.60
2019-06-27T08:03:37.081Z,85.00
2019-06-27T08:06:27.784Z,81.60
2019-06-27T08:08:59.782Z,79.80
2019-06-27T08:11:31.698Z,79.40
2019-06-27T08:14:15.438Z,80.00
2019-06-27T08:16:47.747Z,78.50
2019-06-27T08:19:19.997Z,77.90
2019-06-27T08:21:51.856Z,77.00
2019-06-27T08:24:24.323Z,76.30
2019-06-27T08:26:56.410Z,75.00
2019-06-27T08:29:28.604Z,74.50
2019-06-27T08:32:01.200Z,73.20
2019-06-27T08:34:33.380Z,73.00
2019-06-27T08:37:05.677Z,72.50
2019-06-27T08:39:37.844Z,71.10
2019-06-27T08:42:09.945Z,71.40
2019-06-27T08:44:42.321Z,72.80
2019-06-27T08:47:14.854Z,71.00
2019-06-27T08:49:49.026Z,70.40
2019-06-27T08:52:21.347Z,71.00
2019-06-27T08:54:53.436Z,71.00
2019-06-27T08:57:26.662Z,70.80
2019-06-27T09:00:00.475Z,70.00
2019-06-27T09:02:34.540Z,71.40
2019-06-27T09:05:08.692Z,72.60
2019-06-27T09:07:40.642Z,72.30
2019-06-27T09:10:13.228Z,71.30
2019-06-27T09:12:45.221Z,72.00
2019-06-27T09:15:17.425Z,72.10
2019-06-27T09:17:49.836Z,72.80
2019-06-27T09:20:22.205Z,73.40
2019-06-27T09:22:54.370Z,72.80
2019-06-27T09:25:26.172Z,73.10
2019-06-27T09:27:58.383Z,73.60
2019-06-27T09:30:30.873Z,72.90
2019-06-27T09:33:02.936Z,73.10
2019-06-27T09:35:37.422Z,73.30
2019-06-27T09:38:09.841Z,73.30
2019-06-27T09:40:41.960Z,73.50
2019-06-27T09:43:14.351Z,73.60
2019-06-27T09:45:46.453Z,73.00
2019-06-27T09:48:18.437Z,73.40
2019-06-27T09:50:50.824Z,72.50
2019-06-27T09:53:23.237Z,72.80
2019-06-27T09:55:55.302Z,73.30
2019-06-27T09:58:27.643Z,72.00
2019-06-27T10:01:00.669Z,71.40
2019-06-27T10:03:32.838Z,71.30
2019-06-27T10:06:05.752Z,71.30
2019-06-27T10:08:38.979Z,70.90
2019-06-27T10:11:11.630Z,70.30
2019-06-27T10:13:44.164Z,69.30
2019-06-27T10:16:15.940Z,69.50
2019-06-27T10:18:47.928Z,69.50
2019-06-27T10:21:20.025Z,69.40
2019-06-27T10:23:51.985Z,68.80
2019-06-27T10:26:24.238Z,69.10
2019-06-27T10:28:56.451Z,69.40
2019-06-27T10:31:28.366Z,68.70
2019-06-27T10:34:00.905Z,69.10
2019-06-27T10:36:33.478Z,68.60
2019-06-27T10:39:06.384Z,68.00
2019-06-27T10:41:38.587Z,67.70
2019-06-27T10:44:11.045Z,67.60
2019-06-27T10:46:43.293Z,68.60
2019-06-27T10:49:15.347Z,69.80
2019-06-27T10:51:47.505Z,68.40
2019-06-27T10:54:19.427Z,68.20
2019-06-27T10:56:51.635Z,68.80
2019-06-27T10:59:23.799Z,68.50
2019-06-27T11:01:55.982Z,68.50
2019-06-27T11:04:28.056Z,67.00
2019-06-27T11:07:02.544Z,68.10
2019-06-27T11:09:34.743Z,66.90
2019-06-27T11:12:06.870Z,68.20
2019-06-27T11:14:39.265Z,67.80
2019-06-27T11:17:11.352Z,67.00
2019-06-27T11:19:52.363Z,66.90
2019-06-27T11:22:17.392Z,67.70
2019-06-27T11:24:49.414Z,67.70
2019-06-27T11:27:21.553Z,67.80
2019-06-27T11:29:53.834Z,68.10
2019-06-27T11:32:26.014Z,68.70
2019-06-27T11:34:58.260Z,68.60
2019-06-27T11:37:30.475Z,68.10
2019-06-27T11:40:02.390Z,68.00
2019-06-27T11:42:34.443Z,68.30
2019-06-27T11:45:07.129Z,68.50
2019-06-27T11:47:39.635Z,69.30
2019-06-27T11:50:11.746Z,69.60
2019-06-27T11:52:47.101Z,69.80
2019-06-27T11:55:19.468Z,69.60
2019-06-27T11:57:51.513Z,69.80
2019-06-27T12:00:24.308Z,70.30
2019-06-27T12:02:56.853Z,69.70
2019-06-27T12:05:29.073Z,69.10
2019-06-27T12:08:01.324Z,68.50
2019-06-27T12:10:33.683Z,69.50
2019-06-27T12:13:06.269Z,68.90
2019-06-27T12:15:39.228Z,69.80
2019-06-27T12:18:11.348Z,68.00
2019-06-27T12:20:43.657Z,69.40
2019-06-27T12:23:15.949Z,68.30
2019-06-27T12:25:48.230Z,68.20
2019-06-27T12:28:20.495Z,68.50
2019-06-27T12:30:52.280Z,68.90
2019-06-27T12:33:24.733Z,68.50
2019-06-27T12:35:57.390Z,69.80
2019-06-27T12:38:30.164Z,70.10
2019-06-27T12:41:02.766Z,70.20
2019-06-27T12:43:34.993Z,71.00
2019-06-27T12:46:07.386Z,70.10
2019-06-27T12:48:39.378Z,70.00
2019-06-27T12:51:11.564Z,70.90
2019-06-27T12:53:44.094Z,71.20
2019-06-27T12:56:16.742Z,70.80
2019-06-27T12:58:51.515Z,71.20
2019-06-27T13:01:24.065Z,70.90
2019-06-27T13:03:56.254Z,71.60
2019-06-27T13:06:28.975Z,71.10
2019-06-27T13:09:01.802Z,71.10
2019-06-27T13:11:33.934Z,71.20
2019-06-27T13:14:06.546Z,71.30
2019-06-27T13:16:39.154Z,70.80
2019-06-27T13:19:11.668Z,71.00
2019-06-27T13:21:44.069Z,70.90
2019-06-27T13:24:16.286Z,72.00
2019-06-27T13:26:48.344Z,71.00
2019-06-27T13:29:20.619Z,70.30
2019-06-27T13:31:53.494Z,70.00
2019-06-27T13:34:39.452Z,70.60
2019-06-27T13:36:59.895Z,70.40
2019-06-27T13:39:32.067Z,70.10
2019-06-27T13:42:04.446Z,70.10
2019-06-27T13:44:36.542Z,70.10
2019-06-27T13:47:08.753Z,70.00
2019-06-27T13:49:40.834Z,70.00
2019-06-27T13:52:14.712Z,68.20
2019-06-27T13:54:48.456Z,69.40
2019-06-27T13:57:20.780Z,68.00
2019-06-27T13:59:53.100Z,68.40
2019-06-27T14:02:25.119Z,67.70
2019-06-27T14:04:58.026Z,67.00
2019-06-27T14:07:30.588Z,67.90
2019-06-27T14:10:02.873Z,67.60
2019-06-27T14:12:35.058Z,66.30
2019-06-27T14:15:07.688Z,67.10
2019-06-27T14:17:39.756Z,66.60
2019-06-27T14:20:12.575Z,67.70
2019-06-27T14:22:45.009Z,65.50
2019-06-27T14:25:17.904Z,65.40
2019-06-27T14:27:50.124Z,66.80
2019-06-27T14:30:22.274Z,67.00
2019-06-27T14:32:54.364Z,65.10
2019-06-27T14:35:26.500Z,64.50
2019-06-27T14:37:58.861Z,64.00
2019-06-27T14:40:30.959Z,62.50
2019-06-27T14:43:03.509Z,62.30
2019-06-27T14:45:35.652Z,62.70
2019-06-27T14:48:07.819Z,62.10
2019-06-27T14:50:39.799Z,62.60
2019-06-27T14:53:11.948Z,63.00
2019-06-27T14:55:44.393Z,61.30
2019-06-27T14:58:16.681Z,61.30
2019-06-27T15:00:48.938Z,60.50
2019-06-27T15:03:21.440Z,61.40
2019-06-27T15:05:53.977Z,61.60
2019-06-27T15:08:26.380Z,62.90
2019-06-27T15:10:58.580Z,61.00
2019-06-27T15:13:31.206Z,59.80
2019-06-27T15:16:11.647Z,58.20
2019-06-27T15:18:37.952Z,58.00
2019-06-27T15:21:10.615Z,56.50
2019-06-27T15:23:43.602Z,56.60
2019-06-27T15:26:16.540Z,56.60
2019-06-27T15:28:49.224Z,54.70
2019-06-27T15:31:22.658Z,54.80
2019-06-27T15:33:56.159Z,54.10
2019-06-27T15:36:29.889Z,55.30
2019-06-27T15:39:03.352Z,54.10
2019-06-27T15:41:36.329Z,51.30
2019-06-27T15:44:09.533Z,52.70
2019-06-27T15:46:42.396Z,51.90
2019-06-27T15:49:15.428Z,50.90
2019-06-27T15:51:48.689Z,49.50
2019-06-27T15:54:21.836Z,53.00
2019-06-27T15:56:54.292Z,52.60
2019-06-27T15:59:27.197Z,50.10
2019-06-27T16:02:00.048Z,51.10
2019-06-27T16:04:34.587Z,49.50
2019-06-27T16:07:07.353Z,50.00
2019-06-27T16:09:58.981Z,49.50
2019-06-27T16:12:31.545Z,48.10
2019-06-27T16:15:06.908Z,48.20
2019-06-27T16:17:39.701Z,47.70
2019-06-27T16:20:14.652Z,47.90
2019-06-27T16:22:47.196Z,46.30
2019-06-27T16:25:20.046Z,45.60
2019-06-27T16:27:52.624Z,45.90
2019-06-27T16:30:25.507Z,45.50
2019-06-27T16:32:58.120Z,45.30
2019-06-27T16:35:31.020Z,45.90
2019-06-27T16:38:03.784Z,44.10
2019-06-27T16:40:36.332Z,43.60
2019-06-27T16:43:09.067Z,42.80
2019-06-27T16:45:41.619Z,42.90
2019-06-27T16:48:14.359Z,41.90
2019-06-27T16:50:47.852Z,41.20
2019-06-27T16:53:20.452Z,43.10
2019-06-27T16:55:53.140Z,42.00
2019-06-27T16:58:26.490Z,42.30
2019-06-27T17:00:59.143Z,43.80
2019-06-27T17:03:33.056Z,41.50
2019-06-27T17:06:05.704Z,41.80
2019-06-27T17:08:38.413Z,42.40
2019-06-27T17:11:11.309Z,42.70
2019-06-27T17:13:44.093Z,44.80
2019-06-27T17:16:16.897Z,44.10
2019-06-27T17:18:49.624Z,43.50
2019-06-27T17:21:22.183Z,43.70
2019-06-27T17:24:04.913Z,44.50
2019-06-27T17:26:45.582Z,44.00
2019-06-27T17:29:28.223Z,44.20
2019-06-27T17:32:12.234Z,44.70
2019-06-27T17:34:50.563Z,43.90
2019-06-27T17:37:23.629Z,43.90
2019-06-27T17:39:56.317Z,44.40
2019-06-27T17:42:28.970Z,43.30
2019-06-27T17:45:02.710Z,43.60
2019-06-27T17:47:35.097Z,42.50
2019-06-27T17:50:08.637Z,42.30
2019-06-27T17:52:41.668Z,42.30
2019-06-27T17:55:14.521Z,42.60
2019-06-27T17:57:47.461Z,41.70
2019-06-27T18:00:20.350Z,41.50
2019-06-27T18:02:52.900Z,41.70
2019-06-27T18:05:25.783Z,41.10
2019-06-27T18:07:58.358Z,41.10
2019-06-27T18:10:31.064Z,41.80
2019-06-27T18:13:03.904Z,41.30
2019-06-27T18:15:36.595Z,41.10
2019-06-27T18:18:09.556Z,41.60
2019-06-27T18:20:42.271Z,41.30
2019-06-27T18:23:15.058Z,41.10
2019-06-27T18:25:47.756Z,41.50
2019-06-27T18:28:20.356Z,42.20
2019-06-27T18:30:52.862Z,41.40
2019-06-27T18:33:25.367Z,41.30
2019-06-27T18:35:58.204Z,41.30
2019-06-27T18:38:30.952Z,41.50
2019-06-27T18:41:03.759Z,41.70
2019-06-27T18:43:36.492Z,42.10
2019-06-27T18:46:09.441Z,42.10
2019-06-27T18:48:42.052Z,41.90
2019-06-27T18:51:14.561Z,42.10
2019-06-27T18:53:47.162Z,42.00
2019-06-27T18:56:19.593Z,42.40
2019-06-27T18:58:52.441Z,42.90
2019-06-27T19:01:24.989Z,42.20
2019-06-27T19:03:57.612Z,42.80
2019-06-27T19:06:30.369Z,42.50
2019-06-27T19:09:03.237Z,43.00
2019-06-27T19:11:36.067Z,42.90
2019-06-27T19:14:08.962Z,42.80
2019-06-27T19:16:41.662Z,43.10
2019-06-27T19:19:17.332Z,43.60
2019-06-27T19:22:11.285Z,43.70
2019-06-27T19:24:51.799Z,44.60
2019-06-27T19:27:24.690Z,45.00
2019-06-27T19:29:58.093Z,44.70
2019-06-27T19:32:30.905Z,44.40
2019-06-27T19:35:03.546Z,45.00
2019-06-27T19:37:36.438Z,44.50
2019-06-27T19:40:10.178Z,44.70
2019-06-27T19:42:42.634Z,45.00
2019-06-27T19:45:15.959Z,44.40
2019-06-27T19:47:48.489Z,44.80
2019-06-27T19:50:21.659Z,44.40
2019-06-27T19:52:54.565Z,44.10
2019-06-27T19:55:27.305Z,44.20
2019-06-27T19:57:59.721Z,44.00
2019-06-27T20:00:32.579Z,44.70
2019-06-27T20:03:05.312Z,43.90
2019-06-27T20:05:38.109Z,44.30
2019-06-27T20:08:18.987Z,44.10
2019-06-27T20:10:45.363Z,45.00
2019-06-27T20:13:17.598Z,44.80
2019-06-27T20:15:50.620Z,44.90
2019-06-27T20:18:23.108Z,45.90
2019-06-27T20:20:55.550Z,47.50
2019-06-27T20:23:27.965Z,45.10
2019-06-27T20:26:03.821Z,45.40
2019-06-27T20:28:36.201Z,45.80
2019-06-27T20:31:08.810Z,45.70
2019-06-27T20:33:41.270Z,46.30
2019-06-27T20:36:13.814Z,46.10
2019-06-27T20:38:46.543Z,46.70
2019-06-27T20:41:19.010Z,46.30
2019-06-27T20:43:52.247Z,46.30
2019-06-27T20:46:25.041Z,48.00
2019-06-27T20:48:58.013Z,46.90
2019-06-27T20:51:30.588Z,46.20
2019-06-27T20:54:03.251Z,46.50
2019-06-27T20:56:36.552Z,46.30
2019-06-27T20:59:09.071Z,45.70
2019-06-27T21:01:41.828Z,46.00
2019-06-27T21:04:14.307Z,45.90
2019-06-27T21:06:46.771Z,46.00
2019-06-27T21:09:19.376Z,46.60
2019-06-27T21:11:52.252Z,46.60
2019-06-27T21:14:25.002Z,46.00
2019-06-27T21:16:57.470Z,47.00
2019-06-27T21:19:30.029Z,46.80
2019-06-27T21:22:02.645Z,47.00
2019-06-27T21:24:35.336Z,47.20
2019-06-27T21:27:07.915Z,47.00
2019-06-27T21:29:40.612Z,48.50
2019-06-27T21:32:13.337Z,50.60
2019-06-27T21:34:45.948Z,50.10
2019-06-27T21:37:18.647Z,49.60
2019-06-27T21:39:51.067Z,50.40
2019-06-27T21:42:23.643Z,49.90
2019-06-27T21:44:56.363Z,49.10
2019-06-27T21:47:30.952Z,49.40
2019-06-27T21:50:03.497Z,50.10
2019-06-27T21:52:36.102Z,50.00
2019-06-27T21:55:09.044Z,49.60
2019-06-27T21:57:52.213Z,49.70
2019-06-27T22:00:27.899Z,50.20
2019-06-27T22:03:00.650Z,50.70
2019-06-27T22:05:33.343Z,51.50
2019-06-27T22:08:06.108Z,52.10
2019-06-27T22:10:38.519Z,52.70
2019-06-27T22:13:11.173Z,53.20
2019-06-27T22:15:43.913Z,53.40
2019-06-27T22:18:16.658Z,53.40
2019-06-27T22:20:49.291Z,53.60
2019-06-27T22:23:22.113Z,54.10
2019-06-27T22:25:54.634Z,54.40
2019-06-27T22:28:27.373Z,54.50
2019-06-27T22:30:59.838Z,54.50
2019-06-27T22:33:33.173Z,55.60
2019-06-27T22:36:05.639Z,55.90
2019-06-27T22:38:55.369Z,55.70
2019-06-27T22:41:45.853Z,56.20
2019-06-27T22:44:35.893Z,56.50
2019-06-27T22:47:26.167Z,56.50
2019-06-27T22:49:59.528Z,56.50
2019-06-27T22:53:00.052Z,56.00
2019-06-27T22:55:32.806Z,55.60
2019-06-27T22:58:05.877Z,54.80
2019-06-27T23:00:38.642Z,54.20
2019-06-27T23:03:11.496Z,54.10
2019-06-27T23:05:44.348Z,53.90
2019-06-27T23:08:16.999Z,53.80
2019-06-27T23:10:49.945Z,54.00
2019-06-27T23:13:24.058Z,54.10
2019-06-27T23:15:56.839Z,53.80
2019-06-27T23:18:29.469Z,53.80
2019-06-27T23:21:02.119Z,53.80
2019-06-27T23:23:34.768Z,53.80
2019-06-27T23:26:07.384Z,53.70
2019-06-27T23:28:39.971Z,53.80
2019-06-27T23:31:12.593Z,54.00
2019-06-27T23:33:45.131Z,54.50
2019-06-27T23:36:17.759Z,54.30
2019-06-27T23:38:50.425Z,54.40
2019-06-27T23:41:23.228Z,54.20
2019-06-27T23:43:55.901Z,54.50
2019-06-27T23:46:42.132Z,54.70
2019-06-27T23:49:14.875Z,54.70
2019-06-27T23:51:47.728Z,55.00
2019-06-27T23:54:20.439Z,54.50
2019-06-27T23:56:53.292Z,54.50
2019-06-27T23:59:25.907Z,54.90
